Terminal Aerodrome Forecast
Issued by NWS Lake Charles, LA

Home | Current Version | Previous Version | Text Only | Print | Product List | Glossary On
Versions: 1 2 3 4 5 6 7 8 9 10 11 12 13 14 15 16 17
000
FTUS44 KLCH 180500
TAFARA
TAF
KARA 180520Z 1806/1906 04006KT P6SM OVC015
     FM180800 01005KT 3SM MIFG BKN009 OVC012
      TEMPO 1809/1813 1/2SM FG SCT002 OVC009
     FM181500 01010G15KT P6SM BKN029 BKN100
     FM181900 35010G15KT P6SM SCT030 SCT080
     FM182300 04006KT P6SM SKC=

USA.gov is the U.S. government's official web portal to all federal, state and local government web resources and services.